sensor_id;sensor_type;location;lat;lon;timestamp;pressure;altitude;pressure_sealevel;temperature;humidity
5872;BME280;2962;51.312;7.378;2022-12-10T00:01:36;96528.78;;;-2.23;100.00
5872;BME280;2962;51.312;7.378;2022-12-10T00:04:01;96535.22;;;-2.24;100.00
5872;BME280;2962;51.312;7.378;2022-12-10T00:06:30;96526.09;;;-2.32;100.00
5872;BME280;2962;51.312;7.378;2022-12-10T00:08:56;96514.19;;;-2.34;100.00
5872;BME280;2962;51.312;7.378;2022-12-10T00:11:22;96526.53;;;-2.38;100.00
5872;BME280;2962;51.312;7.378;2022-12-10T00:13:49;96532.00;;;-2.43;100.00
5872;BME280;2962;51.312;7.378;2022-12-10T00:16:17;96521.44;;;-2.57;100.00
5872;BME280;2962;51.312;7.378;2022-12-10T00:18:43;96528.03;;;-2.55;100.00
5872;BME280;2962;51.312;7.378;2022-12-10T00:21:11;96526.81;;;-2.49;100.00
5872;BME280;2962;51.312;7.378;2022-12-10T00:23:37;96521.59;;;-2.54;100.00
5872;BME280;2962;51.312;7.378;2022-12-10T00:28:35;96523.00;;;-2.56;100.00
5872;BME280;2962;51.312;7.378;2022-12-10T00:31:06;96519.56;;;-2.57;100.00
5872;BME280;2962;51.312;7.378;2022-12-10T00:33:32;96518.28;;;-2.59;100.00
5872;BME280;2962;51.312;7.378;2022-12-10T00:36:19;96525.06;;;-2.53;100.00
5872;BME280;2962;51.312;7.378;2022-12-10T00:38:45;96528.63;;;-2.58;100.00
5872;BME280;2962;51.312;7.378;2022-12-10T00:41:12;96531.16;;;-2.61;100.00
5872;BME280;2962;51.312;7.378;2022-12-10T00:43:38;96522.97;;;-2.65;100.00
5872;BME280;2962;51.312;7.378;2022-12-10T00:46:04;96524.56;;;-2.55;100.00
5872;BME280;2962;51.312;7.378;2022-12-10T00:48:30;96510.53;;;-2.70;100.00
5872;BME280;2962;51.312;7.378;2022-12-10T00:51:08;96501.63;;;-2.65;100.00
5872;BME280;2962;51.312;7.378;2022-12-10T00:53:35;96515.47;;;-2.54;100.00
5872;BME280;2962;51.312;7.378;2022-12-10T00:56:01;96524.25;;;-2.54;100.00
5872;BME280;2962;51.312;7.378;2022-12-10T00:58:28;96524.88;;;-2.57;100.00
5872;BME280;2962;51.312;7.378;2022-12-10T01:00:54;96515.28;;;-2.58;100.00
5872;BME280;2962;51.312;7.378;2022-12-10T01:03:19;96526.78;;;-2.57;100.00
5872;BME280;2962;51.312;7.378;2022-12-10T01:05:45;96520.63;;;-2.58;100.00
5872;BME280;2962;51.312;7.378;2022-12-10T01:08:11;96518.25;;;-2.68;100.00
5872;BME280;2962;51.312;7.378;2022-12-10T01:10:36;96513.69;;;-2.67;100.00
5872;BME280;2962;51.312;7.378;2022-12-10T01:13:02;96521.25;;;-2.61;100.00
5872;BME280;2962;51.312;7.378;2022-12-10T01:15:27;96532.34;;;-2.67;100.00
5872;BME280;2962;51.312;7.378;2022-12-10T01:17:52;96510.84;;;-2.71;100.00
5872;BME280;2962;51.312;7.378;2022-12-10T01:20:18;96535.84;;;-2.58;100.00
5872;BME280;2962;51.312;7.378;2022-12-10T01:22:43;96532.88;;;-2.57;100.00
5872;BME280;2962;51.312;7.378;2022-12-10T01:25:08;96530.31;;;-2.62;100.00
5872;BME280;2962;51.312;7.378;2022-12-10T01:27:33;96540.16;;;-2.49;100.00
5872;BME280;2962;51.312;7.378;2022-12-10T01:29:59;96542.81;;;-2.49;100.00
5872;BME280;2962;51.312;7.378;2022-12-10T01:32:24;96550.84;;;-2.40;100.00
5872;BME280;2962;51.312;7.378;2022-12-10T01:34:51;96548.34;;;-2.36;100.00
5872;BME280;2962;51.312;7.378;2022-12-10T01:37:16;96532.44;;;-2.50;100.00
5872;BME280;2962;51.312;7.378;2022-12-10T01:39:41;96550.06;;;-2.40;100.00
5872;BME280;2962;51.312;7.378;2022-12-10T01:42:10;96541.28;;;-2.41;100.00
5872;BME280;2962;51.312;7.378;2022-12-10T01:47:08;96548.22;;;-2.31;100.00
5872;BME280;2962;51.312;7.378;2022-12-10T01:49:37;96539.88;;;-2.38;100.00
5872;BME280;2962;51.312;7.378;2022-12-10T01:52:06;96556.72;;;-2.29;100.00
5872;BME280;2962;51.312;7.378;2022-12-10T01:54:34;96557.81;;;-2.30;100.00
5872;BME280;2962;51.312;7.378;2022-12-10T01:57:03;96562.34;;;-2.31;100.00
5872;BME280;2962;51.312;7.378;2022-12-10T01:59:30;96561.56;;;-2.31;100.00
5872;BME280;2962;51.312;7.378;2022-12-10T02:02:07;96562.97;;;-2.34;100.00
5872;BME280;2962;51.312;7.378;2022-12-10T02:05:31;96559.03;;;-2.36;100.00
5872;BME280;2962;51.312;7.378;2022-12-10T02:11:17;96552.47;;;-2.30;100.00
5872;BME280;2962;51.312;7.378;2022-12-10T02:14:06;96558.44;;;-2.33;100.00
5872;BME280;2962;51.312;7.378;2022-12-10T02:16:46;96557.56;;;-2.42;100.00
5872;BME280;2962;51.312;7.378;2022-12-10T02:22:15;96551.78;;;-2.44;100.00
5872;BME280;2962;51.312;7.378;2022-12-10T02:24:43;96541.72;;;-2.48;100.00
5872;BME280;2962;51.312;7.378;2022-12-10T02:27:16;96545.94;;;-2.47;100.00
5872;BME280;2962;51.312;7.378;2022-12-10T02:29:46;96536.50;;;-2.53;100.00
5872;BME280;2962;51.312;7.378;2022-12-10T02:32:16;96549.28;;;-2.41;100.00
5872;BME280;2962;51.312;7.378;2022-12-10T02:34:48;96545.34;;;-2.43;100.00
5872;BME280;2962;51.312;7.378;2022-12-10T02:37:19;96551.59;;;-2.48;100.00
5872;BME280;2962;51.312;7.378;2022-12-10T02:39:50;96546.72;;;-2.46;100.00
5872;BME280;2962;51.312;7.378;2022-12-10T02:42:17;96544.06;;;-2.46;100.00
5872;BME280;2962;51.312;7.378;2022-12-10T02:44:46;96538.44;;;-2.44;100.00
5872;BME280;2962;51.312;7.378;2022-12-10T02:47:15;96548.00;;;-2.43;100.00
5872;BME280;2962;51.312;7.378;2022-12-10T02:49:41;96544.38;;;-2.48;100.00
5872;BME280;2962;51.312;7.378;2022-12-10T02:52:12;96536.72;;;-2.40;100.00
5872;BME280;2962;51.312;7.378;2022-12-10T03:02:13;96539.88;;;-2.38;100.00
5872;BME280;2962;51.312;7.378;2022-12-10T03:04:53;96550.25;;;-2.37;100.00
5872;BME280;2962;51.312;7.378;2022-12-10T03:07:32;96552.31;;;-2.34;100.00
5872;BME280;2962;51.312;7.378;2022-12-10T03:10:06;96542.53;;;-2.38;100.00
5872;BME280;2962;51.312;7.378;2022-12-10T03:12:46;96546.78;;;-2.37;100.00
5872;BME280;2962;51.312;7.378;2022-12-10T03:15:13;96542.41;;;-2.33;100.00
5872;BME280;2962;51.312;7.378;2022-12-10T03:17:42;96553.56;;;-2.31;100.00
5872;BME280;2962;51.312;7.378;2022-12-10T03:20:13;96557.47;;;-2.37;100.00
5872;BME280;2962;51.312;7.378;2022-12-10T03:22:40;96558.78;;;-2.57;100.00
5872;BME280;2962;51.312;7.378;2022-12-10T03:25:08;96560.53;;;-2.53;100.00
5872;BME280;2962;51.312;7.378;2022-12-10T03:27:36;96556.16;;;-2.49;100.00
5872;BME280;2962;51.312;7.378;2022-12-10T03:30:04;96565.25;;;-2.50;100.00
5872;BME280;2962;51.312;7.378;2022-12-10T03:32:30;96552.38;;;-2.48;100.00
5872;BME280;2962;51.312;7.378;2022-12-10T03:34:57;96564.00;;;-2.43;100.00
5872;BME280;2962;51.312;7.378;2022-12-10T03:37:24;96565.75;;;-2.39;100.00
5872;BME280;2962;51.312;7.378;2022-12-10T03:39:50;96562.63;;;-2.41;100.00
5872;BME280;2962;51.312;7.378;2022-12-10T03:42:16;96563.41;;;-2.40;100.00
5872;BME280;2962;51.312;7.378;2022-12-10T03:44:42;96570.13;;;-2.43;100.00
5872;BME280;2962;51.312;7.378;2022-12-10T03:47:09;96568.59;;;-2.35;100.00
5872;BME280;2962;51.312;7.378;2022-12-10T03:49:35;96559.28;;;-2.47;100.00
5872;BME280;2962;51.312;7.378;2022-12-10T03:52:01;96574.38;;;-2.42;100.00
5872;BME280;2962;51.312;7.378;2022-12-10T03:54:26;96573.53;;;-2.51;100.00
5872;BME280;2962;51.312;7.378;2022-12-10T03:56:52;96574.03;;;-2.49;100.00
5872;BME280;2962;51.312;7.378;2022-12-10T03:59:17;96570.91;;;-2.42;100.00
5872;BME280;2962;51.312;7.378;2022-12-10T04:01:42;96564.53;;;-2.33;100.00
5872;BME280;2962;51.312;7.378;2022-12-10T04:04:08;96555.19;;;-2.53;100.00
5872;BME280;2962;51.312;7.378;2022-12-10T04:06:34;96560.94;;;-2.59;100.00
5872;BME280;2962;51.312;7.378;2022-12-10T04:08:59;96560.63;;;-2.58;100.00
5872;BME280;2962;51.312;7.378;2022-12-10T04:11:25;96569.59;;;-2.54;100.00
5872;BME280;2962;51.312;7.378;2022-12-10T04:13:51;96562.09;;;-2.52;100.00
5872;BME280;2962;51.312;7.378;2022-12-10T04:16:36;96566.22;;;-2.46;100.00
5872;BME280;2962;51.312;7.378;2022-12-10T04:21:30;96556.00;;;-2.43;100.00
5872;BME280;2962;51.312;7.378;2022-12-10T04:24:17;96567.22;;;-2.33;100.00
5872;BME280;2962;51.312;7.378;2022-12-10T04:27:05;96571.88;;;-2.38;100.00
5872;BME280;2962;51.312;7.378;2022-12-10T04:29:31;96565.53;;;-2.51;100.00
5872;BME280;2962;51.312;7.378;2022-12-10T04:31:57;96572.88;;;-2.57;100.00
5872;BME280;2962;51.312;7.378;2022-12-10T04:34:23;96557.94;;;-2.35;100.00
5872;BME280;2962;51.312;7.378;2022-12-10T04:36:49;96566.03;;;-2.49;100.00
5872;BME280;2962;51.312;7.378;2022-12-10T04:39:15;96576.59;;;-2.35;100.00
5872;BME280;2962;51.312;7.378;2022-12-10T04:41:44;96574.78;;;-2.26;100.00
5872;BME280;2962;51.312;7.378;2022-12-10T04:44:09;96558.91;;;-2.54;100.00
5872;BME280;2962;51.312;7.378;2022-12-10T04:46:35;96577.34;;;-2.43;100.00
5872;BME280;2962;51.312;7.378;2022-12-10T04:49:01;96567.81;;;-2.36;100.00
5872;BME280;2962;51.312;7.378;2022-12-10T04:51:27;96566.25;;;-2.37;100.00
5872;BME280;2962;51.312;7.378;2022-12-10T04:53:52;96571.72;;;-2.11;100.00
5872;BME280;2962;51.312;7.378;2022-12-10T04:56:18;96571.63;;;-2.28;100.00
5872;BME280;2962;51.312;7.378;2022-12-10T04:58:43;96570.91;;;-2.42;100.00
5872;BME280;2962;51.312;7.378;2022-12-10T05:01:10;96566.06;;;-2.40;100.00
5872;BME280;2962;51.312;7.378;2022-12-10T05:03:36;96574.44;;;-2.33;100.00
5872;BME280;2962;51.312;7.378;2022-12-10T05:06:03;96568.03;;;-2.24;100.00
5872;BME280;2962;51.312;7.378;2022-12-10T05:08:29;96569.69;;;-2.36;100.00
5872;BME280;2962;51.312;7.378;2022-12-10T05:10:55;96571.53;;;-2.46;100.00
5872;BME280;2962;51.312;7.378;2022-12-10T05:13:21;96581.13;;;-2.44;100.00
5872;BME280;2962;51.312;7.378;2022-12-10T05:15:46;96580.97;;;-2.39;100.00
5872;BME280;2962;51.312;7.378;2022-12-10T05:18:11;96581.56;;;-2.42;100.00
5872;BME280;2962;51.312;7.378;2022-12-10T05:20:36;96575.09;;;-2.50;100.00
5872;BME280;2962;51.312;7.378;2022-12-10T05:23:02;96578.72;;;-2.46;100.00
5872;BME280;2962;51.312;7.378;2022-12-10T05:25:46;96575.78;;;-2.44;100.00
5872;BME280;2962;51.312;7.378;2022-12-10T05:28:21;96569.34;;;-2.43;100.00
5872;BME280;2962;51.312;7.378;2022-12-10T05:30:47;96576.41;;;-2.39;100.00
5872;BME280;2962;51.312;7.378;2022-12-10T05:33:13;96584.59;;;-2.35;100.00
5872;BME280;2962;51.312;7.378;2022-12-10T05:35:38;96580.06;;;-2.35;100.00
5872;BME280;2962;51.312;7.378;2022-12-10T05:38:04;96581.75;;;-2.39;100.00
5872;BME280;2962;51.312;7.378;2022-12-10T05:40:30;96584.19;;;-2.51;100.00
5872;BME280;2962;51.312;7.378;2022-12-10T05:42:56;96576.34;;;-2.56;100.00
5872;BME280;2962;51.312;7.378;2022-12-10T05:45:21;96580.75;;;-2.52;100.00
5872;BME280;2962;51.312;7.378;2022-12-10T05:47:46;96586.31;;;-2.39;100.00
5872;BME280;2962;51.312;7.378;2022-12-10T05:50:12;96587.53;;;-2.46;100.00
5872;BME280;2962;51.312;7.378;2022-12-10T05:52:37;96585.94;;;-2.47;100.00
5872;BME280;2962;51.312;7.378;2022-12-10T05:55:03;96578.88;;;-2.51;100.00
5872;BME280;2962;51.312;7.378;2022-12-10T05:57:28;96579.84;;;-2.47;100.00
5872;BME280;2962;51.312;7.378;2022-12-10T05:59:53;96598.22;;;-2.46;100.00
5872;BME280;2962;51.312;7.378;2022-12-10T06:02:18;96589.91;;;-2.44;100.00
5872;BME280;2962;51.312;7.378;2022-12-10T06:04:44;96588.34;;;-2.45;100.00
5872;BME280;2962;51.312;7.378;2022-12-10T06:07:10;96592.25;;;-2.42;100.00
5872;BME280;2962;51.312;7.378;2022-12-10T06:09:35;96595.66;;;-2.51;100.00
5872;BME280;2962;51.312;7.378;2022-12-10T06:12:00;96592.28;;;-2.65;100.00
5872;BME280;2962;51.312;7.378;2022-12-10T06:14:26;96592.56;;;-2.66;100.00
5872;BME280;2962;51.312;7.378;2022-12-10T06:16:51;96596.34;;;-2.67;100.00
5872;BME280;2962;51.312;7.378;2022-12-10T06:19:16;96593.19;;;-2.70;100.00
5872;BME280;2962;51.312;7.378;2022-12-10T06:21:42;96596.38;;;-2.59;100.00
5872;BME280;2962;51.312;7.378;2022-12-10T06:24:07;96591.66;;;-2.62;100.00
5872;BME280;2962;51.312;7.378;2022-12-10T06:26:32;96593.84;;;-2.64;100.00
5872;BME280;2962;51.312;7.378;2022-12-10T06:28:57;96588.34;;;-2.67;100.00
5872;BME280;2962;51.312;7.378;2022-12-10T06:31:23;96589.25;;;-2.72;100.00
5872;BME280;2962;51.312;7.378;2022-12-10T06:33:48;96583.59;;;-2.71;100.00
5872;BME280;2962;51.312;7.378;2022-12-10T06:36:15;96595.75;;;-2.64;100.00
5872;BME280;2962;51.312;7.378;2022-12-10T06:38:41;96603.66;;;-2.51;100.00
5872;BME280;2962;51.312;7.378;2022-12-10T06:41:08;96580.94;;;-2.71;100.00
5872;BME280;2962;51.312;7.378;2022-12-10T06:43:34;96599.19;;;-2.41;100.00
5872;BME280;2962;51.312;7.378;2022-12-10T06:46:10;96594.97;;;-2.65;100.00
5872;BME280;2962;51.312;7.378;2022-12-10T06:48:37;96598.50;;;-2.70;100.00
5872;BME280;2962;51.312;7.378;2022-12-10T06:51:04;96608.84;;;-2.77;100.00
5872;BME280;2962;51.312;7.378;2022-12-10T06:53:31;96608.56;;;-2.66;100.00
5872;BME280;2962;51.312;7.378;2022-12-10T06:56:00;96610.00;;;-2.69;100.00
5872;BME280;2962;51.312;7.378;2022-12-10T06:58:28;96601.25;;;-2.83;100.00
5872;BME280;2962;51.312;7.378;2022-12-10T07:00:53;96611.59;;;-2.82;100.00
5872;BME280;2962;51.312;7.378;2022-12-10T07:03:19;96618.75;;;-2.91;100.00
5872;BME280;2962;51.312;7.378;2022-12-10T07:05:44;96626.63;;;-2.86;100.00
5872;BME280;2962;51.312;7.378;2022-12-10T07:08:09;96626.81;;;-2.82;100.00
5872;BME280;2962;51.312;7.378;2022-12-10T07:10:37;96617.53;;;-2.85;100.00
5872;BME280;2962;51.312;7.378;2022-12-10T07:13:02;96618.81;;;-2.82;100.00
5872;BME280;2962;51.312;7.378;2022-12-10T07:15:27;96624.97;;;-2.96;100.00
5872;BME280;2962;51.312;7.378;2022-12-10T07:17:53;96634.84;;;-2.96;100.00
5872;BME280;2962;51.312;7.378;2022-12-10T07:20:18;96640.84;;;-2.90;100.00
5872;BME280;2962;51.312;7.378;2022-12-10T07:22:44;96632.47;;;-2.98;100.00
5872;BME280;2962;51.312;7.378;2022-12-10T07:25:09;96628.34;;;-3.04;100.00
5872;BME280;2962;51.312;7.378;2022-12-10T07:27:35;96629.16;;;-3.17;100.00
5872;BME280;2962;51.312;7.378;2022-12-10T07:30:00;96645.47;;;-3.18;100.00
5872;BME280;2962;51.312;7.378;2022-12-10T07:32:27;96646.84;;;-3.21;100.00
5872;BME280;2962;51.312;7.378;2022-12-10T07:34:52;96650.22;;;-3.29;100.00
5872;BME280;2962;51.312;7.378;2022-12-10T07:37:17;96644.50;;;-3.36;100.00
5872;BME280;2962;51.312;7.378;2022-12-10T07:39:43;96647.16;;;-3.36;100.00
5872;BME280;2962;51.312;7.378;2022-12-10T07:42:08;96652.78;;;-3.38;100.00
5872;BME280;2962;51.312;7.378;2022-12-10T07:44:34;96656.84;;;-3.40;100.00
5872;BME280;2962;51.312;7.378;2022-12-10T07:46:59;96645.38;;;-3.41;100.00
5872;BME280;2962;51.312;7.378;2022-12-10T07:49:24;96646.88;;;-3.49;100.00
5872;BME280;2962;51.312;7.378;2022-12-10T07:51:50;96659.28;;;-3.58;100.00
5872;BME280;2962;51.312;7.378;2022-12-10T07:54:17;96648.75;;;-3.63;100.00
5872;BME280;2962;51.312;7.378;2022-12-10T07:56:42;96658.91;;;-3.65;100.00
5872;BME280;2962;51.312;7.378;2022-12-10T07:59:08;96656.53;;;-3.66;100.00
5872;BME280;2962;51.312;7.378;2022-12-10T08:01:33;96667.19;;;-3.66;100.00
5872;BME280;2962;51.312;7.378;2022-12-10T08:03:59;96662.84;;;-3.76;100.00
5872;BME280;2962;51.312;7.378;2022-12-10T08:06:26;96664.63;;;-3.72;100.00
5872;BME280;2962;51.312;7.378;2022-12-10T08:08:51;96662.94;;;-3.67;100.00
5872;BME280;2962;51.312;7.378;2022-12-10T08:11:18;96663.44;;;-3.65;100.00
5872;BME280;2962;51.312;7.378;2022-12-10T08:13:45;96663.34;;;-3.60;100.00
5872;BME280;2962;51.312;7.378;2022-12-10T08:16:16;96660.69;;;-3.60;100.00
5872;BME280;2962;51.312;7.378;2022-12-10T08:18:42;96670.75;;;-3.57;100.00
5872;BME280;2962;51.312;7.378;2022-12-10T08:21:14;96678.31;;;-3.51;100.00
5872;BME280;2962;51.312;7.378;2022-12-10T08:23:40;96687.81;;;-3.45;100.00
5872;BME280;2962;51.312;7.378;2022-12-10T08:26:07;96686.00;;;-3.35;100.00
5872;BME280;2962;51.312;7.378;2022-12-10T08:28:33;96683.53;;;-3.32;100.00
5872;BME280;2962;51.312;7.378;2022-12-10T08:30:58;96695.97;;;-3.27;100.00
5872;BME280;2962;51.312;7.378;2022-12-10T08:33:24;96695.28;;;-3.19;100.00
5872;BME280;2962;51.312;7.378;2022-12-10T08:35:49;96691.22;;;-3.03;100.00
5872;BME280;2962;51.312;7.378;2022-12-10T08:38:14;96689.41;;;-2.93;100.00
5872;BME280;2962;51.312;7.378;2022-12-10T08:40:41;96696.19;;;-2.37;100.00
5872;BME280;2962;51.312;7.378;2022-12-10T08:43:06;96688.59;;;-2.44;100.00
5872;BME280;2962;51.312;7.378;2022-12-10T08:45:32;96708.03;;;-2.43;100.00
5872;BME280;2962;51.312;7.378;2022-12-10T08:47:57;96699.59;;;-2.59;100.00
5872;BME280;2962;51.312;7.378;2022-12-10T08:50:22;96690.44;;;-2.67;100.00
5872;BME280;2962;51.312;7.378;2022-12-10T08:52:48;96695.56;;;-2.57;100.00
5872;BME280;2962;51.312;7.378;2022-12-10T08:55:13;96696.53;;;-2.53;100.00
5872;BME280;2962;51.312;7.378;2022-12-10T08:57:38;96705.88;;;-2.41;100.00
5872;BME280;2962;51.312;7.378;2022-12-10T09:00:04;96702.47;;;-2.33;100.00
5872;BME280;2962;51.312;7.378;2022-12-10T09:02:29;96698.94;;;-2.20;100.00
5872;BME280;2962;51.312;7.378;2022-12-10T09:04:55;96704.47;;;-2.16;100.00
5872;BME280;2962;51.312;7.378;2022-12-10T09:07:20;96702.88;;;-1.95;100.00
5872;BME280;2962;51.312;7.378;2022-12-10T09:09:45;96706.53;;;-1.91;100.00
5872;BME280;2962;51.312;7.378;2022-12-10T09:12:11;96696.88;;;-2.01;100.00
5872;BME280;2962;51.312;7.378;2022-12-10T09:14:36;96715.31;;;-2.13;100.00
5872;BME280;2962;51.312;7.378;2022-12-10T09:17:04;96717.44;;;-2.24;100.00
5872;BME280;2962;51.312;7.378;2022-12-10T09:19:29;96718.00;;;-2.35;100.00
5872;BME280;2962;51.312;7.378;2022-12-10T09:21:54;96716.66;;;-2.24;100.00
5872;BME280;2962;51.312;7.378;2022-12-10T09:24:20;96718.59;;;-2.16;100.00
5872;BME280;2962;51.312;7.378;2022-12-10T09:26:45;96724.91;;;-2.12;100.00
5872;BME280;2962;51.312;7.378;2022-12-10T09:29:12;96719.81;;;-2.00;100.00
5872;BME280;2962;51.312;7.378;2022-12-10T09:31:38;96715.03;;;-2.11;100.00
5872;BME280;2962;51.312;7.378;2022-12-10T09:34:03;96720.91;;;-2.01;100.00
5872;BME280;2962;51.312;7.378;2022-12-10T09:36:28;96723.78;;;-1.88;100.00
5872;BME280;2962;51.312;7.378;2022-12-10T09:38:54;96717.25;;;-1.82;100.00
5872;BME280;2962;51.312;7.378;2022-12-10T09:41:45;96714.69;;;-1.65;100.00
5872;BME280;2962;51.312;7.378;2022-12-10T09:46:55;96718.22;;;-2.01;100.00
5872;BME280;2962;51.312;7.378;2022-12-10T09:52:26;96714.78;;;-2.01;100.00
5872;BME280;2962;51.312;7.378;2022-12-10T09:54:57;96724.25;;;-1.95;100.00
5872;BME280;2962;51.312;7.378;2022-12-10T09:57:41;96726.03;;;-1.82;100.00
5872;BME280;2962;51.312;7.378;2022-12-10T10:00:25;96731.41;;;-1.73;100.00
5872;BME280;2962;51.312;7.378;2022-12-10T10:02:56;96722.16;;;-1.44;100.00
5872;BME280;2962;51.312;7.378;2022-12-10T10:05:37;96726.59;;;-1.31;100.00
5872;BME280;2962;51.312;7.378;2022-12-10T10:08:06;96722.97;;;-1.35;100.00
5872;BME280;2962;51.312;7.378;2022-12-10T10:10:39;96727.50;;;-1.44;100.00
5872;BME280;2962;51.312;7.378;2022-12-10T10:15:36;96725.69;;;-1.58;100.00
5872;BME280;2962;51.312;7.378;2022-12-10T10:18:08;96722.50;;;-1.37;100.00
5872;BME280;2962;51.312;7.378;2022-12-10T10:20:36;96725.84;;;-1.63;100.00
5872;BME280;2962;51.312;7.378;2022-12-10T10:23:01;96718.88;;;-1.41;100.00
5872;BME280;2962;51.312;7.378;2022-12-10T10:25:27;96711.47;;;-1.44;100.00
5872;BME280;2962;51.312;7.378;2022-12-10T10:27:53;96718.88;;;-1.41;100.00
5872;BME280;2962;51.312;7.378;2022-12-10T10:30:21;96713.75;;;-1.60;100.00
5872;BME280;2962;51.312;7.378;2022-12-10T10:32:48;96717.09;;;-1.77;100.00
5872;BME280;2962;51.312;7.378;2022-12-10T10:35:48;96721.13;;;-1.88;100.00
5872;BME280;2962;51.312;7.378;2022-12-10T10:38:19;96728.44;;;-2.03;100.00
5872;BME280;2962;51.312;7.378;2022-12-10T10:41:06;96724.38;;;-2.23;100.00
5872;BME280;2962;51.312;7.378;2022-12-10T10:43:39;96735.25;;;-2.19;100.00
5872;BME280;2962;51.312;7.378;2022-12-10T10:46:15;96731.84;;;-2.11;100.00
5872;BME280;2962;51.312;7.378;2022-12-10T10:48:41;96732.44;;;-2.14;100.00
5872;BME280;2962;51.312;7.378;2022-12-10T10:53:42;96745.66;;;-2.09;100.00
5872;BME280;2962;51.312;7.378;2022-12-10T10:56:17;96737.97;;;-2.10;100.00
5872;BME280;2962;51.312;7.378;2022-12-10T10:59:00;96737.47;;;-2.12;100.00
5872;BME280;2962;51.312;7.378;2022-12-10T11:04:07;96740.31;;;-2.31;100.00
5872;BME280;2962;51.312;7.378;2022-12-10T11:06:33;96744.91;;;-2.46;100.00
5872;BME280;2962;51.312;7.378;2022-12-10T11:08:58;96743.09;;;-2.36;100.00
5872;BME280;2962;51.312;7.378;2022-12-10T11:11:34;96744.38;;;-2.34;100.00
5872;BME280;2962;51.312;7.378;2022-12-10T11:14:25;96737.78;;;-2.14;100.00
5872;BME280;2962;51.312;7.378;2022-12-10T11:17:00;96733.91;;;-2.30;100.00
5872;BME280;2962;51.312;7.378;2022-12-10T11:19:26;96745.88;;;-2.41;100.00
5872;BME280;2962;51.312;7.378;2022-12-10T11:21:52;96732.84;;;-2.43;100.00
5872;BME280;2962;51.312;7.378;2022-12-10T11:24:19;96740.47;;;-2.50;100.00
5872;BME280;2962;51.312;7.378;2022-12-10T11:26:53;96751.22;;;-2.41;100.00
5872;BME280;2962;51.312;7.378;2022-12-10T11:35:02;96736.66;;;-2.35;100.00
5872;BME280;2962;51.312;7.378;2022-12-10T11:37:37;96741.53;;;-2.15;100.00
5872;BME280;2962;51.312;7.378;2022-12-10T11:43:08;96742.06;;;-2.04;100.00
5872;BME280;2962;51.312;7.378;2022-12-10T11:50:46;96743.13;;;-1.91;100.00
5872;BME280;2962;51.312;7.378;2022-12-10T11:53:19;96746.75;;;-2.10;100.00
5872;BME280;2962;51.312;7.378;2022-12-10T11:56:07;96747.16;;;-1.94;100.00
5872;BME280;2962;51.312;7.378;2022-12-10T12:09:54;96735.63;;;-1.81;100.00
5872;BME280;2962;51.312;7.378;2022-12-10T12:12:37;96739.22;;;-1.85;100.00
5872;BME280;2962;51.312;7.378;2022-12-10T12:15:39;96751.75;;;-1.63;100.00
5872;BME280;2962;51.312;7.378;2022-12-10T12:18:18;96744.97;;;-1.38;100.00
5872;BME280;2962;51.312;7.378;2022-12-10T12:20:54;96737.41;;;-1.45;100.00
5872;BME280;2962;51.312;7.378;2022-12-10T12:23:28;96741.50;;;-1.70;100.00
5872;BME280;2962;51.312;7.378;2022-12-10T12:26:04;96737.63;;;-1.64;100.00
5872;BME280;2962;51.312;7.378;2022-12-10T12:28:37;96743.38;;;-1.39;100.00
5872;BME280;2962;51.312;7.378;2022-12-10T12:31:09;96738.31;;;-1.10;100.00
5872;BME280;2962;51.312;7.378;2022-12-10T12:33:43;96734.94;;;-1.33;100.00
5872;BME280;2962;51.312;7.378;2022-12-10T12:36:23;96743.88;;;-1.37;100.00
5872;BME280;2962;51.312;7.378;2022-12-10T12:47:34;96747.69;;;-1.61;100.00
5872;BME280;2962;51.312;7.378;2022-12-10T12:50:12;96751.63;;;-1.58;100.00
5872;BME280;2962;51.312;7.378;2022-12-10T12:52:48;96750.94;;;-1.41;100.00
5872;BME280;2962;51.312;7.378;2022-12-10T12:55:20;96744.63;;;-1.06;100.00
5872;BME280;2962;51.312;7.378;2022-12-10T12:57:53;96740.97;;;-1.18;100.00
5872;BME280;2962;51.312;7.378;2022-12-10T13:00:22;96747.00;;;-1.35;100.00
5872;BME280;2962;51.312;7.378;2022-12-10T13:02:53;96752.66;;;-0.97;100.00
5872;BME280;2962;51.312;7.378;2022-12-10T13:05:36;96746.72;;;-1.34;100.00
5872;BME280;2962;51.312;7.378;2022-12-10T13:13:27;96747.94;;;-1.71;100.00
5872;BME280;2962;51.312;7.378;2022-12-10T13:15:54;96751.22;;;-1.74;100.00
5872;BME280;2962;51.312;7.378;2022-12-10T13:18:42;96743.91;;;-1.91;100.00
5872;BME280;2962;51.312;7.378;2022-12-10T13:21:26;96749.41;;;-1.87;100.00
5872;BME280;2962;51.312;7.378;2022-12-10T13:23:54;96748.09;;;-1.99;100.00
5872;BME280;2962;51.312;7.378;2022-12-10T13:26:30;96758.59;;;-2.02;100.00
5872;BME280;2962;51.312;7.378;2022-12-10T13:29:12;96755.19;;;-2.16;100.00
5872;BME280;2962;51.312;7.378;2022-12-10T13:31:38;96758.34;;;-2.14;100.00
5872;BME280;2962;51.312;7.378;2022-12-10T13:34:14;96766.34;;;-2.14;100.00
5872;BME280;2962;51.312;7.378;2022-12-10T13:45:23;96767.13;;;-2.14;100.00
5872;BME280;2962;51.312;7.378;2022-12-10T13:47:50;96758.44;;;-2.19;100.00
5872;BME280;2962;51.312;7.378;2022-12-10T13:50:34;96752.22;;;-2.15;100.00
5872;BME280;2962;51.312;7.378;2022-12-10T13:53:09;96771.94;;;-2.02;100.00
5872;BME280;2962;51.312;7.378;2022-12-10T13:58:46;96766.94;;;-1.73;100.00
5872;BME280;2962;51.312;7.378;2022-12-10T14:04:28;96765.84;;;-1.94;100.00
5872;BME280;2962;51.312;7.378;2022-12-10T14:06:50;96764.22;;;-1.81;100.00
5872;BME280;2962;51.312;7.378;2022-12-10T14:09:31;96772.19;;;-1.59;100.00
5872;BME280;2962;51.312;7.378;2022-12-10T14:12:06;96759.50;;;-1.84;100.00
5872;BME280;2962;51.312;7.378;2022-12-10T14:14:40;96771.84;;;-1.88;100.00
5872;BME280;2962;51.312;7.378;2022-12-10T14:17:24;96761.06;;;-1.83;100.00
5872;BME280;2962;51.312;7.378;2022-12-10T14:19:55;96760.16;;;-1.48;100.00
5872;BME280;2962;51.312;7.378;2022-12-10T14:22:44;96770.31;;;-1.58;100.00
5872;BME280;2962;51.312;7.378;2022-12-10T14:25:16;96788.56;;;-1.83;100.00
5872;BME280;2962;51.312;7.378;2022-12-10T14:27:44;96781.19;;;-1.77;100.00
5872;BME280;2962;51.312;7.378;2022-12-10T14:32:44;96776.84;;;-2.18;100.00
5872;BME280;2962;51.312;7.378;2022-12-10T14:35:16;96783.38;;;-2.24;100.00
5872;BME280;2962;51.312;7.378;2022-12-10T14:37:47;96783.31;;;-2.33;100.00
5872;BME280;2962;51.312;7.378;2022-12-10T14:40:22;96782.47;;;-2.19;100.00
5872;BME280;2962;51.312;7.378;2022-12-10T14:42:49;96788.75;;;-2.38;100.00
5872;BME280;2962;51.312;7.378;2022-12-10T14:45:15;96787.94;;;-2.38;100.00
5872;BME280;2962;51.312;7.378;2022-12-10T14:47:41;96786.44;;;-2.31;100.00
5872;BME280;2962;51.312;7.378;2022-12-10T14:50:15;96787.66;;;-2.37;100.00
5872;BME280;2962;51.312;7.378;2022-12-10T14:52:43;96785.28;;;-2.38;100.00